sensor_id;sensor_type;location;lat;lon;timestamp;temperature;humidity
2571;DHT22;1295;51.130;6.732;2023-11-21T00:02:01;10.90;99.90
2571;DHT22;1295;51.130;6.732;2023-11-21T00:04:27;10.90;99.90
2571;DHT22;1295;51.130;6.732;2023-11-21T00:06:52;10.90;99.90
2571;DHT22;1295;51.130;6.732;2023-11-21T00:09:18;10.90;99.90
2571;DHT22;1295;51.130;6.732;2023-11-21T00:11:44;10.80;99.90
2571;DHT22;1295;51.130;6.732;2023-11-21T00:14:10;10.80;99.90
2571;DHT22;1295;51.130;6.732;2023-11-21T00:16:35;10.80;99.90
2571;DHT22;1295;51.130;6.732;2023-11-21T00:19:01;10.90;99.90
2571;DHT22;1295;51.130;6.732;2023-11-21T00:21:26;10.80;99.90
2571;DHT22;1295;51.130;6.732;2023-11-21T00:23:52;10.80;99.90
2571;DHT22;1295;51.130;6.732;2023-11-21T00:26:18;10.80;99.90
2571;DHT22;1295;51.130;6.732;2023-11-21T00:28:43;10.90;99.90
2571;DHT22;1295;51.130;6.732;2023-11-21T00:31:09;10.90;99.90
2571;DHT22;1295;51.130;6.732;2023-11-21T00:33:35;10.80;99.90
2571;DHT22;1295;51.130;6.732;2023-11-21T00:36:00;10.90;99.90
2571;DHT22;1295;51.130;6.732;2023-11-21T00:38:26;10.90;99.90
2571;DHT22;1295;51.130;6.732;2023-11-21T00:40:52;10.80;99.90
2571;DHT22;1295;51.130;6.732;2023-11-21T00:43:18;10.80;99.90
2571;DHT22;1295;51.130;6.732;2023-11-21T00:45:44;10.80;99.90
2571;DHT22;1295;51.130;6.732;2023-11-21T00:48:10;10.80;99.90
2571;DHT22;1295;51.130;6.732;2023-11-21T00:50:36;10.80;99.90
2571;DHT22;1295;51.130;6.732;2023-11-21T00:53:02;10.70;99.90
2571;DHT22;1295;51.130;6.732;2023-11-21T00:55:28;10.80;99.90
2571;DHT22;1295;51.130;6.732;2023-11-21T00:57:53;10.80;99.90
2571;DHT22;1295;51.130;6.732;2023-11-21T01:00:19;10.80;99.90
2571;DHT22;1295;51.130;6.732;2023-11-21T01:02:45;10.80;99.90
2571;DHT22;1295;51.130;6.732;2023-11-21T01:05:10;10.80;99.90
2571;DHT22;1295;51.130;6.732;2023-11-21T01:07:36;10.80;99.90
2571;DHT22;1295;51.130;6.732;2023-11-21T01:10:03;10.70;99.90
2571;DHT22;1295;51.130;6.732;2023-11-21T01:12:28;10.70;99.90
2571;DHT22;1295;51.130;6.732;2023-11-21T01:14:54;10.70;99.90
2571;DHT22;1295;51.130;6.732;2023-11-21T01:17:20;10.70;99.90
2571;DHT22;1295;51.130;6.732;2023-11-21T01:19:46;10.70;99.90
2571;DHT22;1295;51.130;6.732;2023-11-21T01:22:12;10.70;99.90
2571;DHT22;1295;51.130;6.732;2023-11-21T01:24:38;10.70;99.90
2571;DHT22;1295;51.130;6.732;2023-11-21T01:27:04;10.70;99.90
2571;DHT22;1295;51.130;6.732;2023-11-21T01:29:31;10.70;99.90
2571;DHT22;1295;51.130;6.732;2023-11-21T01:31:56;10.70;99.90
2571;DHT22;1295;51.130;6.732;2023-11-21T01:34:22;10.70;99.90
2571;DHT22;1295;51.130;6.732;2023-11-21T01:36:48;10.70;99.90
2571;DHT22;1295;51.130;6.732;2023-11-21T01:39:13;10.70;99.90
2571;DHT22;1295;51.130;6.732;2023-11-21T01:41:39;10.60;99.90
2571;DHT22;1295;51.130;6.732;2023-11-21T01:44:05;10.60;99.90
2571;DHT22;1295;51.130;6.732;2023-11-21T01:46:30;10.60;99.90
2571;DHT22;1295;51.130;6.732;2023-11-21T01:48:56;10.60;99.90
2571;DHT22;1295;51.130;6.732;2023-11-21T01:51:22;10.60;99.90
2571;DHT22;1295;51.130;6.732;2023-11-21T01:53:47;10.60;99.90
2571;DHT22;1295;51.130;6.732;2023-11-21T01:56:13;10.60;99.90
2571;DHT22;1295;51.130;6.732;2023-11-21T01:58:39;10.60;99.90
2571;DHT22;1295;51.130;6.732;2023-11-21T02:01:05;10.60;99.90
2571;DHT22;1295;51.130;6.732;2023-11-21T02:03:32;10.60;99.90
2571;DHT22;1295;51.130;6.732;2023-11-21T02:05:57;10.60;99.90
2571;DHT22;1295;51.130;6.732;2023-11-21T02:08:23;10.50;99.90
2571;DHT22;1295;51.130;6.732;2023-11-21T02:10:49;10.50;99.90
2571;DHT22;1295;51.130;6.732;2023-11-21T02:13:15;10.50;99.90
2571;DHT22;1295;51.130;6.732;2023-11-21T02:15:41;10.50;99.90
2571;DHT22;1295;51.130;6.732;2023-11-21T02:18:07;10.50;99.90
2571;DHT22;1295;51.130;6.732;2023-11-21T02:20:33;10.50;99.90
2571;DHT22;1295;51.130;6.732;2023-11-21T02:22:58;10.50;99.90
2571;DHT22;1295;51.130;6.732;2023-11-21T02:25:27;10.50;99.90
2571;DHT22;1295;51.130;6.732;2023-11-21T02:27:54;10.50;99.90
2571;DHT22;1295;51.130;6.732;2023-11-21T02:30:19;10.50;99.90
2571;DHT22;1295;51.130;6.732;2023-11-21T02:32:45;10.50;99.90
2571;DHT22;1295;51.130;6.732;2023-11-21T02:35:11;10.50;99.90
2571;DHT22;1295;51.130;6.732;2023-11-21T02:37:36;10.50;99.90
2571;DHT22;1295;51.130;6.732;2023-11-21T02:40:04;10.50;99.90
2571;DHT22;1295;51.130;6.732;2023-11-21T02:42:30;10.50;99.90
2571;DHT22;1295;51.130;6.732;2023-11-21T02:44:55;10.50;99.90
2571;DHT22;1295;51.130;6.732;2023-11-21T02:47:21;10.50;99.90
2571;DHT22;1295;51.130;6.732;2023-11-21T02:49:46;10.50;99.90
2571;DHT22;1295;51.130;6.732;2023-11-21T02:52:12;10.50;99.90
2571;DHT22;1295;51.130;6.732;2023-11-21T02:54:38;10.50;99.90
2571;DHT22;1295;51.130;6.732;2023-11-21T02:57:04;10.50;99.90
2571;DHT22;1295;51.130;6.732;2023-11-21T02:59:30;10.50;99.90
2571;DHT22;1295;51.130;6.732;2023-11-21T03:02:01;10.40;99.90
2571;DHT22;1295;51.130;6.732;2023-11-21T03:04:32;10.50;99.90
2571;DHT22;1295;51.130;6.732;2023-11-21T03:06:58;10.50;99.90
2571;DHT22;1295;51.130;6.732;2023-11-21T03:09:24;10.50;99.90
2571;DHT22;1295;51.130;6.732;2023-11-21T03:11:50;10.50;99.90
2571;DHT22;1295;51.130;6.732;2023-11-21T03:14:15;10.40;99.90
2571;DHT22;1295;51.130;6.732;2023-11-21T03:16:41;10.50;99.90
2571;DHT22;1295;51.130;6.732;2023-11-21T03:19:07;10.50;99.90
2571;DHT22;1295;51.130;6.732;2023-11-21T03:21:32;10.50;99.90
2571;DHT22;1295;51.130;6.732;2023-11-21T03:23:58;10.40;99.90
2571;DHT22;1295;51.130;6.732;2023-11-21T03:26:24;10.50;99.90
2571;DHT22;1295;51.130;6.732;2023-11-21T03:28:50;10.40;99.90
2571;DHT22;1295;51.130;6.732;2023-11-21T03:31:16;10.40;99.90
2571;DHT22;1295;51.130;6.732;2023-11-21T03:33:41;10.50;99.90
2571;DHT22;1295;51.130;6.732;2023-11-21T03:36:08;10.40;99.90
2571;DHT22;1295;51.130;6.732;2023-11-21T03:38:34;10.50;99.90
2571;DHT22;1295;51.130;6.732;2023-11-21T03:40:59;10.40;99.90
2571;DHT22;1295;51.130;6.732;2023-11-21T03:43:26;10.50;99.90
2571;DHT22;1295;51.130;6.732;2023-11-21T03:45:51;10.40;99.90
2571;DHT22;1295;51.130;6.732;2023-11-21T03:48:18;10.40;99.90
2571;DHT22;1295;51.130;6.732;2023-11-21T03:50:43;10.40;99.90
2571;DHT22;1295;51.130;6.732;2023-11-21T03:53:10;10.40;99.90
2571;DHT22;1295;51.130;6.732;2023-11-21T03:55:35;10.40;99.90
2571;DHT22;1295;51.130;6.732;2023-11-21T03:58:01;10.40;99.90
2571;DHT22;1295;51.130;6.732;2023-11-21T04:00:27;10.40;99.90
2571;DHT22;1295;51.130;6.732;2023-11-21T04:02:53;10.40;99.90
2571;DHT22;1295;51.130;6.732;2023-11-21T04:05:19;10.40;99.90
2571;DHT22;1295;51.130;6.732;2023-11-21T04:07:44;10.40;99.90
2571;DHT22;1295;51.130;6.732;2023-11-21T04:10:10;10.40;99.90
2571;DHT22;1295;51.130;6.732;2023-11-21T04:12:35;10.40;99.90
2571;DHT22;1295;51.130;6.732;2023-11-21T04:15:01;10.40;99.90
2571;DHT22;1295;51.130;6.732;2023-11-21T04:17:27;10.40;99.90
2571;DHT22;1295;51.130;6.732;2023-11-21T04:19:52;10.40;99.90
2571;DHT22;1295;51.130;6.732;2023-11-21T04:22:19;10.40;99.90
2571;DHT22;1295;51.130;6.732;2023-11-21T04:24:45;10.30;99.90
2571;DHT22;1295;51.130;6.732;2023-11-21T04:27:10;10.30;99.90
2571;DHT22;1295;51.130;6.732;2023-11-21T04:29:37;10.30;99.90
2571;DHT22;1295;51.130;6.732;2023-11-21T04:32:03;10.30;99.90
2571;DHT22;1295;51.130;6.732;2023-11-21T04:34:29;10.30;99.90
2571;DHT22;1295;51.130;6.732;2023-11-21T04:36:55;10.30;99.90
2571;DHT22;1295;51.130;6.732;2023-11-21T04:39:21;10.30;99.90
2571;DHT22;1295;51.130;6.732;2023-11-21T04:41:46;10.30;99.90
2571;DHT22;1295;51.130;6.732;2023-11-21T04:44:12;10.30;99.90
2571;DHT22;1295;51.130;6.732;2023-11-21T04:46:38;10.30;99.90
2571;DHT22;1295;51.130;6.732;2023-11-21T04:49:03;10.30;99.90
2571;DHT22;1295;51.130;6.732;2023-11-21T04:51:29;10.30;99.90
2571;DHT22;1295;51.130;6.732;2023-11-21T04:53:55;10.30;99.90
2571;DHT22;1295;51.130;6.732;2023-11-21T04:56:21;10.30;99.90
2571;DHT22;1295;51.130;6.732;2023-11-21T04:58:47;10.30;99.90
2571;DHT22;1295;51.130;6.732;2023-11-21T05:01:13;10.30;99.90
2571;DHT22;1295;51.130;6.732;2023-11-21T05:03:38;10.30;99.90
2571;DHT22;1295;51.130;6.732;2023-11-21T05:06:05;10.30;99.90
2571;DHT22;1295;51.130;6.732;2023-11-21T05:08:31;10.30;99.90
2571;DHT22;1295;51.130;6.732;2023-11-21T05:10:57;10.30;99.90
2571;DHT22;1295;51.130;6.732;2023-11-21T05:13:23;10.30;99.90
2571;DHT22;1295;51.130;6.732;2023-11-21T05:15:49;10.30;99.90
2571;DHT22;1295;51.130;6.732;2023-11-21T05:18:15;10.30;99.90
2571;DHT22;1295;51.130;6.732;2023-11-21T05:20:41;10.30;99.90
2571;DHT22;1295;51.130;6.732;2023-11-21T05:23:06;10.30;99.90
2571;DHT22;1295;51.130;6.732;2023-11-21T05:25:32;10.20;99.90
2571;DHT22;1295;51.130;6.732;2023-11-21T05:27:57;10.10;99.90
2571;DHT22;1295;51.130;6.732;2023-11-21T05:30:23;10.20;99.90
2571;DHT22;1295;51.130;6.732;2023-11-21T05:32:49;10.20;99.90
2571;DHT22;1295;51.130;6.732;2023-11-21T05:35:15;10.20;99.90
2571;DHT22;1295;51.130;6.732;2023-11-21T05:37:41;10.20;99.90
2571;DHT22;1295;51.130;6.732;2023-11-21T05:40:08;10.20;99.90
2571;DHT22;1295;51.130;6.732;2023-11-21T05:42:34;10.20;99.90
2571;DHT22;1295;51.130;6.732;2023-11-21T05:44:59;10.20;99.90
2571;DHT22;1295;51.130;6.732;2023-11-21T05:47:25;10.20;99.90
2571;DHT22;1295;51.130;6.732;2023-11-21T05:49:51;10.20;99.90
2571;DHT22;1295;51.130;6.732;2023-11-21T05:52:17;10.20;99.90
2571;DHT22;1295;51.130;6.732;2023-11-21T05:54:43;10.20;99.90
2571;DHT22;1295;51.130;6.732;2023-11-21T05:57:08;10.10;99.90
2571;DHT22;1295;51.130;6.732;2023-11-21T05:59:34;10.10;99.90
2571;DHT22;1295;51.130;6.732;2023-11-21T06:02:00;10.20;99.90
2571;DHT22;1295;51.130;6.732;2023-11-21T06:04:25;10.10;99.90
2571;DHT22;1295;51.130;6.732;2023-11-21T06:06:51;10.10;99.90
2571;DHT22;1295;51.130;6.732;2023-11-21T06:09:17;10.20;99.90
2571;DHT22;1295;51.130;6.732;2023-11-21T06:11:42;10.20;99.90
2571;DHT22;1295;51.130;6.732;2023-11-21T06:14:08;10.20;99.90
2571;DHT22;1295;51.130;6.732;2023-11-21T06:16:34;10.20;99.90
2571;DHT22;1295;51.130;6.732;2023-11-21T06:19:00;10.20;99.90
2571;DHT22;1295;51.130;6.732;2023-11-21T06:21:26;10.20;99.90
2571;DHT22;1295;51.130;6.732;2023-11-21T06:23:51;10.20;99.90
2571;DHT22;1295;51.130;6.732;2023-11-21T06:26:17;10.20;99.90
2571;DHT22;1295;51.130;6.732;2023-11-21T06:28:43;10.10;99.90
2571;DHT22;1295;51.130;6.732;2023-11-21T06:31:08;10.20;99.90
2571;DHT22;1295;51.130;6.732;2023-11-21T06:33:34;10.20;99.90
2571;DHT22;1295;51.130;6.732;2023-11-21T06:36:00;10.20;99.90
2571;DHT22;1295;51.130;6.732;2023-11-21T06:38:25;10.10;99.90
2571;DHT22;1295;51.130;6.732;2023-11-21T06:40:51;10.10;99.90
2571;DHT22;1295;51.130;6.732;2023-11-21T06:43:17;10.10;99.90
2571;DHT22;1295;51.130;6.732;2023-11-21T06:45:42;10.10;99.90
2571;DHT22;1295;51.130;6.732;2023-11-21T06:48:08;10.10;99.90
2571;DHT22;1295;51.130;6.732;2023-11-21T06:50:34;10.20;99.90
2571;DHT22;1295;51.130;6.732;2023-11-21T06:53:00;10.10;99.90
2571;DHT22;1295;51.130;6.732;2023-11-21T06:55:25;10.10;99.90
2571;DHT22;1295;51.130;6.732;2023-11-21T06:57:52;10.10;99.90
2571;DHT22;1295;51.130;6.732;2023-11-21T07:00:17;10.10;99.90
2571;DHT22;1295;51.130;6.732;2023-11-21T07:02:43;10.10;99.90
2571;DHT22;1295;51.130;6.732;2023-11-21T07:05:09;10.10;99.90
2571;DHT22;1295;51.130;6.732;2023-11-21T07:07:35;10.10;99.90
2571;DHT22;1295;51.130;6.732;2023-11-21T07:10:01;10.10;99.90
2571;DHT22;1295;51.130;6.732;2023-11-21T07:12:32;10.10;99.90
2571;DHT22;1295;51.130;6.732;2023-11-21T07:15:04;10.10;99.90
2571;DHT22;1295;51.130;6.732;2023-11-21T07:17:30;10.10;99.90
2571;DHT22;1295;51.130;6.732;2023-11-21T07:19:56;10.10;99.90
2571;DHT22;1295;51.130;6.732;2023-11-21T07:22:22;10.10;99.90
2571;DHT22;1295;51.130;6.732;2023-11-21T07:24:49;10.10;99.90
2571;DHT22;1295;51.130;6.732;2023-11-21T07:27:14;10.10;99.90
2571;DHT22;1295;51.130;6.732;2023-11-21T07:29:40;10.10;99.90
2571;DHT22;1295;51.130;6.732;2023-11-21T07:32:06;10.10;99.90
2571;DHT22;1295;51.130;6.732;2023-11-21T07:34:32;10.10;99.90
2571;DHT22;1295;51.130;6.732;2023-11-21T07:36:58;10.10;99.90
2571;DHT22;1295;51.130;6.732;2023-11-21T07:39:24;10.10;99.90
2571;DHT22;1295;51.130;6.732;2023-11-21T07:41:49;10.10;99.90
2571;DHT22;1295;51.130;6.732;2023-11-21T07:44:16;10.10;99.90
2571;DHT22;1295;51.130;6.732;2023-11-21T07:46:42;10.10;99.90
2571;DHT22;1295;51.130;6.732;2023-11-21T07:49:07;10.10;99.90
2571;DHT22;1295;51.130;6.732;2023-11-21T07:51:33;10.10;99.90
2571;DHT22;1295;51.130;6.732;2023-11-21T07:53:59;10.10;99.90
2571;DHT22;1295;51.130;6.732;2023-11-21T07:56:25;9.90;99.90
2571;DHT22;1295;51.130;6.732;2023-11-21T07:58:51;9.90;99.90
2571;DHT22;1295;51.130;6.732;2023-11-21T08:01:17;10.00;99.90
2571;DHT22;1295;51.130;6.732;2023-11-21T08:03:43;9.90;99.90
2571;DHT22;1295;51.130;6.732;2023-11-21T08:06:09;10.00;99.90
2571;DHT22;1295;51.130;6.732;2023-11-21T08:08:35;10.00;99.90
2571;DHT22;1295;51.130;6.732;2023-11-21T08:11:01;10.00;99.90
2571;DHT22;1295;51.130;6.732;2023-11-21T08:13:27;9.90;99.90
2571;DHT22;1295;51.130;6.732;2023-11-21T08:15:54;9.80;99.90
2571;DHT22;1295;51.130;6.732;2023-11-21T08:18:19;9.80;99.90
2571;DHT22;1295;51.130;6.732;2023-11-21T08:20:46;10.00;99.90
2571;DHT22;1295;51.130;6.732;2023-11-21T08:23:14;10.00;99.90
2571;DHT22;1295;51.130;6.732;2023-11-21T08:25:38;9.90;99.90
2571;DHT22;1295;51.130;6.732;2023-11-21T08:28:04;9.90;99.90
2571;DHT22;1295;51.130;6.732;2023-11-21T08:30:30;9.90;99.90
2571;DHT22;1295;51.130;6.732;2023-11-21T08:32:56;9.90;99.90
2571;DHT22;1295;51.130;6.732;2023-11-21T08:35:22;9.90;99.90
2571;DHT22;1295;51.130;6.732;2023-11-21T08:37:49;9.90;99.90
2571;DHT22;1295;51.130;6.732;2023-11-21T08:40:14;9.90;99.90
2571;DHT22;1295;51.130;6.732;2023-11-21T08:42:39;9.80;99.90
2571;DHT22;1295;51.130;6.732;2023-11-21T08:45:06;9.90;99.90
2571;DHT22;1295;51.130;6.732;2023-11-21T08:47:32;10.00;99.90
2571;DHT22;1295;51.130;6.732;2023-11-21T08:49:58;10.00;99.90
2571;DHT22;1295;51.130;6.732;2023-11-21T08:52:24;10.00;99.90
2571;DHT22;1295;51.130;6.732;2023-11-21T08:54:50;10.00;99.90
2571;DHT22;1295;51.130;6.732;2023-11-21T08:57:18;10.00;99.90
2571;DHT22;1295;51.130;6.732;2023-11-21T08:59:43;10.10;99.90
2571;DHT22;1295;51.130;6.732;2023-11-21T09:02:09;10.10;99.90
2571;DHT22;1295;51.130;6.732;2023-11-21T09:04:35;10.00;99.90
2571;DHT22;1295;51.130;6.732;2023-11-21T09:07:00;10.10;99.90
2571;DHT22;1295;51.130;6.732;2023-11-21T09:09:26;10.10;99.90
2571;DHT22;1295;51.130;6.732;2023-11-21T09:11:51;10.10;99.90
2571;DHT22;1295;51.130;6.732;2023-11-21T09:14:17;10.10;99.90
2571;DHT22;1295;51.130;6.732;2023-11-21T09:16:43;10.10;99.90
2571;DHT22;1295;51.130;6.732;2023-11-21T09:19:09;10.10;99.90
2571;DHT22;1295;51.130;6.732;2023-11-21T09:21:34;10.10;99.90
2571;DHT22;1295;51.130;6.732;2023-11-21T09:24:00;10.10;99.90
2571;DHT22;1295;51.130;6.732;2023-11-21T09:26:26;10.10;99.90
2571;DHT22;1295;51.130;6.732;2023-11-21T09:28:51;10.10;99.90
2571;DHT22;1295;51.130;6.732;2023-11-21T09:31:17;10.10;99.90
2571;DHT22;1295;51.130;6.732;2023-11-21T09:33:44;10.10;99.90
2571;DHT22;1295;51.130;6.732;2023-11-21T09:36:11;10.10;99.90
2571;DHT22;1295;51.130;6.732;2023-11-21T09:38:36;10.10;99.90
2571;DHT22;1295;51.130;6.732;2023-11-21T09:41:02;10.10;99.90
2571;DHT22;1295;51.130;6.732;2023-11-21T09:43:27;10.00;99.90
2571;DHT22;1295;51.130;6.732;2023-11-21T09:45:54;10.00;99.90
2571;DHT22;1295;51.130;6.732;2023-11-21T09:48:19;9.80;99.90
2571;DHT22;1295;51.130;6.732;2023-11-21T09:50:46;9.90;99.90
2571;DHT22;1295;51.130;6.732;2023-11-21T09:53:17;10.00;99.90
2571;DHT22;1295;51.130;6.732;2023-11-21T09:55:43;10.00;99.90
2571;DHT22;1295;51.130;6.732;2023-11-21T09:58:08;9.70;99.90
2571;DHT22;1295;51.130;6.732;2023-11-21T10:00:34;9.70;99.90
2571;DHT22;1295;51.130;6.732;2023-11-21T10:03:00;9.80;99.90
2571;DHT22;1295;51.130;6.732;2023-11-21T10:05:26;9.90;99.90
2571;DHT22;1295;51.130;6.732;2023-11-21T10:07:51;10.00;99.90
2571;DHT22;1295;51.130;6.732;2023-11-21T10:10:19;9.90;99.90
2571;DHT22;1295;51.130;6.732;2023-11-21T10:12:45;10.00;99.90
2571;DHT22;1295;51.130;6.732;2023-11-21T10:15:10;10.10;99.90
2571;DHT22;1295;51.130;6.732;2023-11-21T10:17:36;10.10;99.90
2571;DHT22;1295;51.130;6.732;2023-11-21T10:20:03;10.10;99.90
2571;DHT22;1295;51.130;6.732;2023-11-21T10:22:29;9.80;99.90
2571;DHT22;1295;51.130;6.732;2023-11-21T10:24:54;9.80;99.90
2571;DHT22;1295;51.130;6.732;2023-11-21T10:27:20;9.70;99.90
2571;DHT22;1295;51.130;6.732;2023-11-21T10:29:46;9.70;99.90
2571;DHT22;1295;51.130;6.732;2023-11-21T10:32:12;9.70;99.90
2571;DHT22;1295;51.130;6.732;2023-11-21T10:34:38;9.70;99.90
2571;DHT22;1295;51.130;6.732;2023-11-21T10:37:10;9.70;99.90
2571;DHT22;1295;51.130;6.732;2023-11-21T10:39:32;9.80;99.90
2571;DHT22;1295;51.130;6.732;2023-11-21T10:41:57;10.00;99.90
2571;DHT22;1295;51.130;6.732;2023-11-21T10:44:22;10.10;99.90
2571;DHT22;1295;51.130;6.732;2023-11-21T10:46:50;10.00;99.90
2571;DHT22;1295;51.130;6.732;2023-11-21T10:49:17;10.00;99.90
2571;DHT22;1295;51.130;6.732;2023-11-21T10:51:43;9.90;99.90
2571;DHT22;1295;51.130;6.732;2023-11-21T10:54:09;9.70;99.90
2571;DHT22;1295;51.130;6.732;2023-11-21T10:56:34;9.90;99.90
2571;DHT22;1295;51.130;6.732;2023-11-21T10:59:00;10.00;99.90
2571;DHT22;1295;51.130;6.732;2023-11-21T11:01:26;10.10;99.90
2571;DHT22;1295;51.130;6.732;2023-11-21T11:03:51;10.10;99.90
2571;DHT22;1295;51.130;6.732;2023-11-21T11:06:17;10.10;99.90
2571;DHT22;1295;51.130;6.732;2023-11-21T11:08:43;10.10;99.90
2571;DHT22;1295;51.130;6.732;2023-11-21T11:11:09;10.10;99.90
2571;DHT22;1295;51.130;6.732;2023-11-21T11:13:37;10.10;99.90
2571;DHT22;1295;51.130;6.732;2023-11-21T11:16:01;10.10;99.90
2571;DHT22;1295;51.130;6.732;2023-11-21T11:18:28;10.10;99.90
2571;DHT22;1295;51.130;6.732;2023-11-21T11:20:54;10.10;99.90
2571;DHT22;1295;51.130;6.732;2023-11-21T11:23:54;10.10;99.90
2571;DHT22;1295;51.130;6.732;2023-11-21T11:26:27;10.10;99.90
2571;DHT22;1295;51.130;6.732;2023-11-21T11:29:00;10.10;99.90
2571;DHT22;1295;51.130;6.732;2023-11-21T11:31:37;10.10;99.90
2571;DHT22;1295;51.130;6.732;2023-11-21T11:34:06;10.10;99.90
2571;DHT22;1295;51.130;6.732;2023-11-21T11:36:29;10.20;99.90
2571;DHT22;1295;51.130;6.732;2023-11-21T11:38:53;10.20;99.90
2571;DHT22;1295;51.130;6.732;2023-11-21T11:41:25;10.20;99.90
2571;DHT22;1295;51.130;6.732;2023-11-21T11:43:50;10.20;99.90
2571;DHT22;1295;51.130;6.732;2023-11-21T11:46:16;10.20;99.90
2571;DHT22;1295;51.130;6.732;2023-11-21T11:48:42;10.20;99.90
2571;DHT22;1295;51.130;6.732;2023-11-21T11:51:10;10.20;99.90
2571;DHT22;1295;51.130;6.732;2023-11-21T11:53:36;10.20;99.90
2571;DHT22;1295;51.130;6.732;2023-11-21T11:56:23;10.10;99.90
2571;DHT22;1295;51.130;6.732;2023-11-21T11:58:48;10.10;99.90
2571;DHT22;1295;51.130;6.732;2023-11-21T12:01:13;10.20;99.90
2571;DHT22;1295;51.130;6.732;2023-11-21T12:03:39;10.20;99.90
2571;DHT22;1295;51.130;6.732;2023-11-21T12:06:05;10.20;99.90
2571;DHT22;1295;51.130;6.732;2023-11-21T12:08:31;10.20;99.90
2571;DHT22;1295;51.130;6.732;2023-11-21T12:10:57;10.20;99.90
2571;DHT22;1295;51.130;6.732;2023-11-21T12:13:23;10.20;99.90
2571;DHT22;1295;51.130;6.732;2023-11-21T12:15:48;10.20;99.90
2571;DHT22;1295;51.130;6.732;2023-11-21T12:18:14;10.20;99.90
2571;DHT22;1295;51.130;6.732;2023-11-21T12:20:40;10.20;99.90
2571;DHT22;1295;51.130;6.732;2023-11-21T12:23:06;10.20;99.90
2571;DHT22;1295;51.130;6.732;2023-11-21T12:25:31;10.30;99.90
2571;DHT22;1295;51.130;6.732;2023-11-21T12:27:57;10.30;99.90
2571;DHT22;1295;51.130;6.732;2023-11-21T12:30:23;10.40;99.90
2571;DHT22;1295;51.130;6.732;2023-11-21T12:32:50;10.40;99.90
2571;DHT22;1295;51.130;6.732;2023-11-21T12:35:16;10.40;99.90
2571;DHT22;1295;51.130;6.732;2023-11-21T12:37:42;10.40;99.90
2571;DHT22;1295;51.130;6.732;2023-11-21T12:40:09;10.40;99.90
2571;DHT22;1295;51.130;6.732;2023-11-21T12:42:35;10.30;99.90
2571;DHT22;1295;51.130;6.732;2023-11-21T12:45:07;10.40;99.90
2571;DHT22;1295;51.130;6.732;2023-11-21T12:47:33;10.30;99.90
2571;DHT22;1295;51.130;6.732;2023-11-21T12:49:57;10.40;99.90
2571;DHT22;1295;51.130;6.732;2023-11-21T12:52:23;10.40;99.90
2571;DHT22;1295;51.130;6.732;2023-11-21T12:54:49;10.30;99.90
2571;DHT22;1295;51.130;6.732;2023-11-21T12:57:14;10.30;99.90
2571;DHT22;1295;51.130;6.732;2023-11-21T12:59:40;10.30;99.90
2571;DHT22;1295;51.130;6.732;2023-11-21T13:02:06;10.30;99.90
2571;DHT22;1295;51.130;6.732;2023-11-21T13:04:32;10.30;99.90
2571;DHT22;1295;51.130;6.732;2023-11-21T13:07:02;10.30;99.90
2571;DHT22;1295;51.130;6.732;2023-11-21T13:09:23;10.30;99.90
2571;DHT22;1295;51.130;6.732;2023-11-21T13:11:49;10.30;99.90
2571;DHT22;1295;51.130;6.732;2023-11-21T13:14:14;10.30;99.90
2571;DHT22;1295;51.130;6.732;2023-11-21T13:16:40;10.30;99.90
2571;DHT22;1295;51.130;6.732;2023-11-21T13:19:06;10.30;99.90
2571;DHT22;1295;51.130;6.732;2023-11-21T13:21:31;10.30;99.90
2571;DHT22;1295;51.130;6.732;2023-11-21T13:23:57;10.40;99.90
2571;DHT22;1295;51.130;6.732;2023-11-21T13:26:23;10.30;99.90
2571;DHT22;1295;51.130;6.732;2023-11-21T13:28:49;10.30;99.90
2571;DHT22;1295;51.130;6.732;2023-11-21T13:31:14;10.40;99.90
2571;DHT22;1295;51.130;6.732;2023-11-21T13:33:47;10.30;99.90
2571;DHT22;1295;51.130;6.732;2023-11-21T13:36:12;10.30;99.90
2571;DHT22;1295;51.130;6.732;2023-11-21T13:38:37;10.30;99.90
2571;DHT22;1295;51.130;6.732;2023-11-21T13:41:03;10.30;99.90
2571;DHT22;1295;51.130;6.732;2023-11-21T13:43:29;10.30;99.90
2571;DHT22;1295;51.130;6.732;2023-11-21T13:45:54;10.40;99.90
2571;DHT22;1295;51.130;6.732;2023-11-21T13:48:21;10.40;99.90
2571;DHT22;1295;51.130;6.732;2023-11-21T13:50:47;10.30;99.90
2571;DHT22;1295;51.130;6.732;2023-11-21T13:53:14;10.30;99.90
2571;DHT22;1295;51.130;6.732;2023-11-21T13:55:42;10.40;99.90
2571;DHT22;1295;51.130;6.732;2023-11-21T13:58:08;10.40;99.90
2571;DHT22;1295;51.130;6.732;2023-11-21T14:00:33;10.40;99.90
2571;DHT22;1295;51.130;6.732;2023-11-21T14:03:05;10.30;99.90
2571;DHT22;1295;51.130;6.732;2023-11-21T14:05:31;10.30;99.90
2571;DHT22;1295;51.130;6.732;2023-11-21T14:07:57;10.30;99.90
2571;DHT22;1295;51.130;6.732;2023-11-21T14:10:23;10.30;99.90
2571;DHT22;1295;51.130;6.732;2023-11-21T14:12:48;10.30;99.90
2571;DHT22;1295;51.130;6.732;2023-11-21T14:15:14;10.40;99.90
2571;DHT22;1295;51.130;6.732;2023-11-21T14:17:40;10.40;99.90
2571;DHT22;1295;51.130;6.732;2023-11-21T14:20:07;10.40;99.90
2571;DHT22;1295;51.130;6.732;2023-11-21T14:22:33;10.40;99.90
2571;DHT22;1295;51.130;6.732;2023-11-21T14:24:58;10.40;99.90
2571;DHT22;1295;51.130;6.732;2023-11-21T14:27:24;10.40;99.90
2571;DHT22;1295;51.130;6.732;2023-11-21T14:29:50;10.40;99.90
2571;DHT22;1295;51.130;6.732;2023-11-21T14:32:16;10.40;99.90
2571;DHT22;1295;51.130;6.732;2023-11-21T14:34:42;10.40;99.90
2571;DHT22;1295;51.130;6.732;2023-11-21T14:37:07;10.40;99.90
2571;DHT22;1295;51.130;6.732;2023-11-21T14:39:33;10.40;99.90
2571;DHT22;1295;51.130;6.732;2023-11-21T14:41:59;10.40;99.90
2571;DHT22;1295;51.130;6.732;2023-11-21T14:44:24;10.40;99.90
2571;DHT22;1295;51.130;6.732;2023-11-21T14:46:50;10.40;99.90
2571;DHT22;1295;51.130;6.732;2023-11-21T14:49:16;10.40;99.90
2571;DHT22;1295;51.130;6.732;2023-11-21T14:51:47;10.40;99.90
2571;DHT22;1295;51.130;6.732;2023-11-21T14:54:15;10.40;99.90
2571;DHT22;1295;51.130;6.732;2023-11-21T14:56:40;10.40;99.90
2571;DHT22;1295;51.130;6.732;2023-11-21T14:59:06;10.40;99.90
2571;DHT22;1295;51.130;6.732;2023-11-21T15:01:32;10.40;99.90
2571;DHT22;1295;51.130;6.732;2023-11-21T15:04:04;10.40;99.90
2571;DHT22;1295;51.130;6.732;2023-11-21T15:06:30;10.50;99.90
2571;DHT22;1295;51.130;6.732;2023-11-21T15:08:56;10.40;99.90
2571;DHT22;1295;51.130;6.732;2023-11-21T15:11:21;10.40;99.90
2571;DHT22;1295;51.130;6.732;2023-11-21T15:13:47;10.40;99.90
2571;DHT22;1295;51.130;6.732;2023-11-21T15:16:13;10.40;99.90
2571;DHT22;1295;51.130;6.732;2023-11-21T15:18:38;10.40;99.90
2571;DHT22;1295;51.130;6.732;2023-11-21T15:21:04;10.40;99.90
2571;DHT22;1295;51.130;6.732;2023-11-21T15:23:30;10.40;99.90
2571;DHT22;1295;51.130;6.732;2023-11-21T15:25:57;10.40;99.90
2571;DHT22;1295;51.130;6.732;2023-11-21T15:28:22;10.40;99.90
2571;DHT22;1295;51.130;6.732;2023-11-21T15:30:49;10.40;99.90
2571;DHT22;1295;51.130;6.732;2023-11-21T15:33:14;10.40;99.90
2571;DHT22;1295;51.130;6.732;2023-11-21T15:35:40;10.40;99.90
2571;DHT22;1295;51.130;6.732;2023-11-21T15:38:06;10.40;99.90
2571;DHT22;1295;51.130;6.732;2023-11-21T15:40:31;10.40;99.90
2571;DHT22;1295;51.130;6.732;2023-11-21T15:42:57;10.40;99.90
2571;DHT22;1295;51.130;6.732;2023-11-21T15:45:23;10.40;99.90
2571;DHT22;1295;51.130;6.732;2023-11-21T15:47:48;10.40;99.90
2571;DHT22;1295;51.130;6.732;2023-11-21T15:50:14;10.40;99.90
2571;DHT22;1295;51.130;6.732;2023-11-21T15:52:40;10.40;99.90
2571;DHT22;1295;51.130;6.732;2023-11-21T15:55:07;10.40;99.90